Time;durP1;ratioP1;P1;durP2;ratioP2;P2;SDS_P1;SDS_P2;PMS_P1;PMS_P2;Temp;Humidity;BMP_temperature;BMP_pressure;BME280_temperature;BME280_humidity;BME280_pressure;Samples;Min_cycle;Max_cycle;Signal;HPM_P1;HPM_P2
2022/05/25 00:01:04;;;;;;;27.00;17.23;;;;;;;16.69;100.00;101091.41;5030396;28;20061;-49
2022/05/25 00:03:32;;;;;;;28.03;16.53;;;;;;;16.51;100.00;101084.19;5030277;28;20038;-50
2022/05/25 00:06:04;;;;;;;29.50;17.33;;;;;;;16.49;100.00;101087.13;5011540;28;20351;-49
2022/05/25 00:08:30;;;;;;;31.17;19.47;;;;;;;16.55;100.00;101084.53;5019331;28;20293;-51
2022/05/25 00:10:56;;;;;;;33.78;21.13;;;;;;;16.74;100.00;101088.84;5023861;28;20256;-48
2022/05/25 00:13:21;;;;;;;37.60;22.58;;;;;;;16.49;100.00;101086.28;5023981;28;20069;-52
2022/05/25 00:15:47;;;;;;;44.47;23.05;;;;;;;16.59;100.00;101091.13;5028727;28;20046;-53
2022/05/25 00:18:12;;;;;;;36.33;21.37;;;;;;;16.82;100.00;101090.38;5017567;28;20038;-52
2022/05/25 00:20:38;;;;;;;31.20;19.73;;;;;;;16.59;100.00;101096.53;5025107;28;20287;-53
2022/05/25 00:23:04;;;;;;;29.47;17.83;;;;;;;16.47;100.00;101101.88;5022999;28;20294;-51
2022/05/25 00:25:37;;;;;;;28.00;16.92;;;;;;;16.40;100.00;101099.28;5018678;28;20383;-50
2022/05/25 00:28:09;;;;;;;26.90;14.40;;;;;;;16.37;100.00;101105.13;5019072;28;20060;-52
2022/05/25 00:30:35;;;;;;;22.97;13.60;;;;;;;16.33;100.00;101102.06;5017038;28;20298;-54
2022/05/25 00:33:01;;;;;;;20.95;11.57;;;;;;;16.24;100.00;101105.31;5021913;28;20276;-48
2022/05/25 00:35:30;;;;;;;19.35;11.65;;;;;;;16.22;100.00;101108.22;5023294;28;20046;-54
2022/05/25 00:37:55;;;;;;;18.93;11.97;;;;;;;16.39;100.00;101113.84;5032984;28;20029;-53
2022/05/25 00:40:23;;;;;;;16.65;11.40;;;;;;;16.43;100.00;101108.78;5027013;28;20343;-48
2022/05/25 00:42:48;;;;;;;19.17;10.80;;;;;;;16.44;100.00;101113.97;5023157;28;20038;-52
2022/05/25 00:45:14;;;;;;;21.02;11.38;;;;;;;16.65;100.00;101111.00;5019805;28;20356;-54
2022/05/25 00:47:44;;;;;;;23.50;11.00;;;;;;;16.25;100.00;101107.75;5027427;28;20042;-54
2022/05/25 00:50:13;;;;;;;15.10;10.27;;;;;;;16.03;100.00;101116.34;5016280;28;20026;-51
2022/05/25 00:52:42;;;;;;;19.90;10.53;;;;;;;15.99;100.00;101119.72;5033335;28;20295;-50
2022/05/25 00:55:10;;;;;;;20.63;10.97;;;;;;;16.08;100.00;101118.34;5027435;28;20301;-50
2022/05/25 00:57:46;;;;;;;16.30;10.10;;;;;;;16.03;100.00;101120.91;5031896;28;20271;-51
2022/05/25 01:00:21;;;;;;;16.30;9.48;;;;;;;15.97;100.00;101122.63;5028133;28;20260;-52
2022/05/25 01:02:57;;;;;;;16.87;9.30;;;;;;;15.95;100.00;101123.91;5018380;28;20041;-48
2022/05/25 01:05:29;;;;;;;15.63;9.20;;;;;;;15.93;100.00;101131.41;5018506;28;20351;-53
2022/05/25 01:08:13;;;;;;;19.07;8.90;;;;;;;15.85;100.00;101135.19;5009746;28;20274;-52
2022/05/25 01:10:52;;;;;;;12.93;8.87;;;;;;;15.94;100.00;101130.34;5028471;28;20279;-55
2022/05/25 01:13:42;;;;;;;14.03;8.67;;;;;;;16.04;100.00;101128.78;5019281;28;20276;-48
2022/05/25 01:16:36;;;;;;;13.10;8.67;;;;;;;15.68;100.00;101132.22;5018681;28;20267;-51
2022/05/25 01:19:14;;;;;;;17.57;10.37;;;;;;;15.89;100.00;101126.44;5025759;28;20280;-50
2022/05/25 01:21:51;;;;;;;17.17;10.37;;;;;;;16.15;100.00;101135.31;5013472;28;20290;-51
2022/05/25 01:24:49;;;;;;;21.00;10.55;;;;;;;16.13;100.00;101133.88;5026484;28;20342;-51
2022/05/25 01:27:31;;;;;;;20.65;11.95;;;;;;;16.00;100.00;101132.16;5025338;28;20044;-52
2022/05/25 01:30:38;;;;;;;24.77;14.07;;;;;;;15.88;100.00;101140.97;5031015;28;20038;-54
2022/05/25 01:33:20;;;;;;;25.93;13.87;;;;;;;15.76;100.00;101134.66;5090038;28;20280;-52
2022/05/25 01:35:58;;;;;;;23.27;13.93;;;;;;;15.78;100.00;101135.25;5092206;28;20340;-51
2022/05/25 01:38:26;;;;;;;17.63;11.23;;;;;;;15.66;100.00;101129.78;5045701;28;20296;-51
2022/05/25 01:41:06;;;;;;;24.23;9.93;;;;;;;15.63;100.00;101132.91;5022208;28;20315;-55
2022/05/25 01:43:44;;;;;;;20.03;9.57;;;;;;;15.78;100.00;101138.75;5028188;28;20295;-50
2022/05/25 01:46:17;;;;;;;20.20;10.20;;;;;;;15.90;100.00;101138.88;5018369;28;20297;-54
2022/05/25 01:48:44;;;;;;;19.13;10.47;;;;;;;15.63;100.00;101143.69;5017143;28;20280;-52
2022/05/25 01:51:16;;;;;;;21.30;9.83;;;;;;;15.74;100.00;101139.44;5023798;28;20306;-55
2022/05/25 01:53:48;;;;;;;15.27;9.70;;;;;;;15.54;100.00;101140.44;5015654;28;20272;-48
2022/05/25 01:56:18;;;;;;;17.37;9.37;;;;;;;15.54;100.00;101145.84;5026118;28;20299;-49
2022/05/25 01:58:47;;;;;;;21.63;9.37;;;;;;;15.53;100.00;101143.34;5027595;28;20271;-48
2022/05/25 02:01:14;;;;;;;17.70;9.67;;;;;;;15.42;100.00;101142.22;5028604;28;20275;-53
2022/05/25 02:06:55;;;;;;;17.23;9.07;;;;;;;15.42;100.00;101144.91;5029663;28;19952;-49
2022/05/25 02:09:48;;;;;;;19.55;8.57;;;;;;;15.39;100.00;101148.03;5027626;28;20248;-48
2022/05/25 02:12:40;;;;;;;16.70;8.40;;;;;;;15.45;100.00;101141.75;5034978;28;20063;-50
2022/05/25 02:15:27;;;;;;;16.70;9.40;;;;;;;15.24;100.00;101151.06;5027280;28;20275;-51
2022/05/25 02:18:02;;;;;;;17.83;9.18;;;;;;;15.26;100.00;101144.41;5028509;28;20279;-51
2022/05/25 02:20:51;;;;;;;18.30;9.17;;;;;;;14.89;100.00;101144.25;5029065;28;20041;-48
2022/05/25 02:23:38;;;;;;;17.10;8.30;;;;;;;15.16;100.00;101144.06;5028923;28;20283;-52
2022/05/25 02:26:17;;;;;;;14.85;7.88;;;;;;;15.08;100.00;101149.72;5028425;28;20288;-52
2022/05/25 02:28:49;;;;;;;17.95;8.70;;;;;;;14.74;100.00;101147.25;5027074;28;20036;-51
2022/05/25 02:31:20;;;;;;;16.13;8.27;;;;;;;15.04;100.00;101147.47;5025486;28;20064;-47
2022/05/25 02:33:50;;;;;;;19.40;8.93;;;;;;;14.96;100.00;101161.19;5028722;28;20267;-49
2022/05/25 02:36:17;;;;;;;15.52;7.88;;;;;;;14.94;100.00;101157.88;5009093;28;20294;-52
2022/05/25 02:38:43;;;;;;;12.23;8.43;;;;;;;14.98;100.00;101153.72;5028205;28;20106;-48
2022/05/25 02:41:25;;;;;;;16.98;8.13;;;;;;;15.10;100.00;101153.03;5026743;28;20272;-50
2022/05/25 02:43:50;;;;;;;18.50;8.77;;;;;;;15.22;100.00;101159.34;5028718;28;20037;-51
2022/05/25 02:46:16;;;;;;;14.63;8.23;;;;;;;14.94;100.00;101160.59;5029430;28;20270;-51
2022/05/25 02:48:42;;;;;;;17.17;9.07;;;;;;;14.97;100.00;101162.84;5025453;28;20089;-48
2022/05/25 02:51:08;;;;;;;18.77;8.63;;;;;;;15.33;100.00;101166.75;5029403;28;20041;-52
2022/05/25 02:53:34;;;;;;;13.75;8.80;;;;;;;15.28;100.00;101165.75;5027839;28;20045;-53
2022/05/25 02:56:01;;;;;;;19.58;8.85;;;;;;;14.90;100.00;101178.22;5027411;28;20053;-51
2022/05/25 02:58:27;;;;;;;;;;;;;;;14.93;100.00;101172.41;5029372;28;20077;-47
2022/05/25 03:00:53;;;;;;;15.00;8.13;;;;;;;15.02;100.00;101176.50;5027900;28;19914;-50
2022/05/25 03:03:20;;;;;;;19.77;9.37;;;;;;;15.27;100.00;101178.41;5027076;28;20034;-47
2022/05/25 03:05:45;;;;;;;18.05;9.15;;;;;;;15.19;100.00;101187.56;5030155;28;20312;-49
2022/05/25 03:08:11;;;;;;;14.27;8.67;;;;;;;14.97;100.00;101184.38;5025432;28;20034;-48
2022/05/25 03:10:36;;;;;;;17.02;8.32;;;;;;;14.94;100.00;101187.50;5027821;28;20038;-51
2022/05/25 03:13:05;;;;;;;15.23;9.13;;;;;;;14.66;100.00;101185.97;5027153;28;20089;-48
2022/05/25 03:15:30;;;;;;;22.85;10.23;;;;;;;14.60;100.00;101184.16;5028814;28;20033;-50
2022/05/25 03:17:55;;;;;;;20.13;9.50;;;;;;;14.77;100.00;101190.72;5027497;28;20030;-51
2022/05/25 03:20:21;;;;;;;18.73;9.63;;;;;;;14.70;100.00;101183.69;5027260;28;20057;-49
2022/05/25 03:22:47;;;;;;;20.00;10.30;;;;;;;14.69;100.00;101190.13;5025695;28;20042;-52
2022/05/25 03:25:14;;;;;;;23.13;11.23;;;;;;;14.56;100.00;101191.00;5023887;28;20037;-53
2022/05/25 03:27:40;;;;;;;15.73;9.95;;;;;;;14.54;100.00;101201.97;5028583;28;20097;-51
2022/05/25 03:30:08;;;;;;;19.90;10.35;;;;;;;14.66;100.00;101193.25;5029311;28;20034;-51
2022/05/25 03:32:34;;;;;;;26.95;11.52;;;;;;;14.99;100.00;101203.03;5026259;28;20109;-48
2022/05/25 03:35:00;;;;;;;21.08;11.30;;;;;;;14.75;100.00;101203.56;5029057;28;20030;-50
2022/05/25 03:37:26;;;;;;;20.02;11.27;;;;;;;14.53;100.00;101205.69;5028301;28;20034;-54
2022/05/25 03:39:52;;;;;;;20.95;12.02;;;;;;;14.76;100.00;101197.16;5027680;28;20037;-51
2022/05/25 03:42:18;;;;;;;17.48;11.88;;;;;;;14.96;100.00;101201.59;5026535;28;20042;-50
2022/05/25 03:44:44;;;;;;;24.55;12.05;;;;;;;14.98;100.00;101207.56;5024803;28;20049;-51
2022/05/25 03:47:10;;;;;;;21.65;11.80;;;;;;;14.76;100.00;101210.63;5023169;28;20026;-50
2022/05/25 03:49:35;;;;;;;20.57;11.87;;;;;;;14.95;100.00;101212.59;5027281;28;20026;-50
2022/05/25 03:52:03;;;;;;;23.95;11.80;;;;;;;14.83;100.00;101204.38;5031507;28;20030;-50
2022/05/25 03:54:28;;;;;;;25.83;12.68;;;;;;;14.90;100.00;101211.38;5027508;28;20026;-50
2022/05/25 03:56:54;;;;;;;22.77;12.17;;;;;;;15.13;100.00;101211.84;5031682;28;20052;-50
2022/05/25 03:59:20;;;;;;;21.23;12.95;;;;;;;15.08;100.00;101207.09;5029281;28;20034;-51
2022/05/25 04:01:45;;;;;;;26.13;13.70;;;;;;;15.06;100.00;101211.88;5030995;28;20112;-51
2022/05/25 04:04:10;;;;;;;22.33;12.70;;;;;;;15.01;100.00;101209.03;5031653;28;20041;-48
2022/05/25 04:06:36;;;;;;;28.80;16.40;;;;;;;15.25;100.00;101217.38;5025153;28;20074;-54
2022/05/25 04:09:02;;;;;;;20.57;12.47;;;;;;;15.09;100.00;101219.53;5026249;28;20147;-54
2022/05/25 04:11:28;;;;;;;19.10;13.55;;;;;;;15.28;100.00;101217.78;5026210;28;20042;-51
2022/05/25 04:13:54;;;;;;;27.08;13.93;;;;;;;15.18;100.00;101217.41;5025350;28;20042;-53
2022/05/25 04:16:20;;;;;;;26.30;16.10;;;;;;;15.30;100.00;101226.47;5026595;28;20038;-49
2022/05/25 04:18:45;;;;;;;27.67;14.27;;;;;;;15.25;100.00;101226.28;5033276;28;20350;-51
2022/05/25 04:21:11;;;;;;;25.95;13.48;;;;;;;15.13;100.00;101222.63;5033241;28;20105;-48
2022/05/25 04:23:36;;;;;;;22.73;13.40;;;;;;;15.17;100.00;101227.38;5033290;28;20038;-52
2022/05/25 04:26:02;;;;;;;31.13;16.20;;;;;;;15.30;100.00;101220.22;5037216;28;20056;-51
2022/05/25 04:28:27;;;;;;;25.55;15.20;;;;;;;15.09;100.00;101229.50;5084727;28;20048;-50
2022/05/25 04:30:53;;;;;;;25.08;13.55;;;;;;;15.32;100.00;101231.63;5055347;28;20048;-47
2022/05/25 04:33:18;;;;;;;28.17;14.57;;;;;;;15.19;100.00;101232.53;5054129;28;20049;-51
2022/05/25 04:35:44;;;;;;;25.35;15.35;;;;;;;15.38;100.00;101232.63;5048046;28;20027;-49
2022/05/25 04:38:13;;;;;;;25.23;13.70;;;;;;;15.33;100.00;101225.19;5053416;28;20057;-52
2022/05/25 04:40:41;;;;;;;27.15;13.40;;;;;;;15.16;100.00;101231.13;5022305;28;20026;-49
2022/05/25 04:43:13;;;;;;;24.33;13.85;;;;;;;15.14;100.00;101232.34;5023006;28;20034;-52
2022/05/25 04:45:44;;;;;;;26.65;14.98;;;;;;;15.06;100.00;101225.34;5053795;28;20038;-47
2022/05/25 04:48:13;;;;;;;24.10;14.40;;;;;;;15.21;100.00;101227.75;5015006;28;20054;-51
2022/05/25 04:50:41;;;;;;;28.53;14.90;;;;;;;15.27;100.00;101228.75;5025727;28;20034;-48
2022/05/25 04:53:09;;;;;;;22.70;13.87;;;;;;;15.40;100.00;101233.22;5024479;28;20292;-50
2022/05/25 04:58:38;;;;;;;22.33;14.13;;;;;;;15.71;100.00;101236.94;5030050;28;20097;-46
2022/05/25 05:01:05;;;;;;;22.50;13.15;;;;;;;15.67;100.00;101241.09;5047962;28;20287;-53
2022/05/25 05:03:32;;;;;;;28.63;12.93;;;;;;;15.26;100.00;101246.81;5017696;28;20069;-53
2022/05/25 05:05:59;;;;;;;28.33;13.33;;;;;;;15.30;100.00;101244.47;5029073;28;20274;-51
2022/05/25 05:08:25;;;;;;;33.13;14.20;;;;;;;15.62;100.00;101256.06;5019466;28;20260;-50
2022/05/25 05:10:51;;;;;;;23.42;13.00;;;;;;;15.30;100.00;101247.19;5020146;28;20306;-47
2022/05/25 05:13:18;;;;;;;23.77;14.30;;;;;;;15.36;100.00;101250.88;5020236;28;20056;-48
2022/05/25 05:15:51;;;;;;;25.65;12.90;;;;;;;15.38;100.00;101244.25;5024496;28;20276;-49
2022/05/25 05:18:18;;;;;;;26.17;12.77;;;;;;;15.39;100.00;101245.06;5018812;28;20033;-46
2022/05/25 05:21:04;;;;;;;28.63;12.63;;;;;;;15.20;100.00;101234.19;5011199;28;20279;-45
2022/05/25 05:23:30;;;;;;;26.42;12.98;;;;;;;15.83;100.00;101245.97;5027444;28;20371;-47
2022/05/25 05:25:56;;;;;;;24.33;12.88;;;;;;;15.74;100.00;101239.22;5023988;28;20106;-51
2022/05/25 05:28:30;;;;;;;23.13;12.82;;;;;;;15.45;100.00;101244.16;5028451;28;20049;-50
2022/05/25 05:30:57;;;;;;;23.43;12.73;;;;;;;15.55;100.00;101239.13;5030065;28;20050;-48
2022/05/25 05:33:25;;;;;;;21.93;12.63;;;;;;;15.14;100.00;101230.50;5045356;28;20299;-49
2022/05/25 05:35:58;;;;;;;24.83;12.03;;;;;;;16.07;100.00;101235.41;5031597;28;20336;-52
2022/05/25 05:38:24;;;;;;;19.40;12.03;;;;;;;15.29;100.00;101242.84;5027177;28;20354;-48
2022/05/25 05:40:52;;;;;;;29.02;13.05;;;;;;;15.28;100.00;101239.31;5026244;28;20271;-49
2022/05/25 05:43:17;;;;;;;26.57;12.03;;;;;;;15.23;100.00;101239.16;5028937;28;20034;-49
2022/05/25 05:45:44;;;;;;;22.37;13.00;;;;;;;15.37;100.00;101241.75;5029730;28;20289;-47
2022/05/25 05:48:15;;;;;;;20.83;12.97;;;;;;;15.54;100.00;101247.44;5030024;28;20286;-47
2022/05/25 05:50:43;;;;;;;24.97;12.40;;;;;;;15.51;100.00;101248.72;5029005;28;20271;-47
2022/05/25 05:53:11;;;;;;;32.80;12.73;;;;;;;15.72;100.00;101238.59;5027449;28;20287;-50
2022/05/25 05:55:40;;;;;;;21.37;11.23;;;;;;;15.53;100.00;101241.22;5026424;28;20335;-52
2022/05/25 05:58:05;;;;;;;23.93;11.67;;;;;;;15.62;100.00;101245.28;5028273;28;20297;-51
2022/05/25 06:00:31;;;;;;;23.45;12.05;;;;;;;15.76;100.00;101250.59;5028531;28;20299;-48
2022/05/25 06:02:56;;;;;;;20.80;11.30;;;;;;;15.84;100.00;101246.81;5029474;28;20033;-47
2022/05/25 06:05:22;;;;;;;25.17;12.33;;;;;;;15.47;100.00;101247.50;5019180;28;20272;-51
2022/05/25 06:07:47;;;;;;;20.70;10.90;;;;;;;15.49;100.00;101248.09;5013926;28;20284;-49
2022/05/25 06:10:13;;;;;;;25.80;12.03;;;;;;;15.58;100.00;101252.19;5011546;28;20283;-52
2022/05/25 06:12:38;;;;;;;22.20;11.37;;;;;;;15.52;100.00;101254.91;5032476;28;20034;-48
2022/05/25 06:20:39;;;;;;;23.37;11.97;;;;;;;15.99;100.00;101259.97;5024628;28;20307;-47
2022/05/25 06:23:04;;;;;;;27.58;11.18;;;;;;;16.04;100.00;101260.13;5023584;28;20280;-51
2022/05/25 06:25:30;;;;;;;24.33;12.03;;;;;;;16.10;100.00;101266.53;5025617;28;20037;-47
2022/05/25 06:27:56;;;;;;;24.87;10.90;;;;;;;15.93;100.00;101263.56;5014659;28;20049;-52
2022/05/25 06:30:21;;;;;;;27.40;12.25;;;;;;;16.19;100.00;101274.09;5011935;28;20275;-49
2022/05/25 06:32:47;;;;;;;27.50;11.90;;;;;;;16.24;100.00;101268.03;5031309;28;20033;-49
2022/05/25 06:35:13;;;;;;;23.20;11.40;;;;;;;16.45;100.00;101265.94;5020275;28;20056;-49
2022/05/25 06:37:39;;;;;;;21.17;11.20;;;;;;;16.23;100.00;101273.66;5024983;28;20044;-50
2022/05/25 06:40:06;;;;;;;22.10;11.13;;;;;;;16.56;100.00;101275.16;5029572;28;20050;-47
2022/05/25 06:42:31;;;;;;;;;;;;;;;16.40;100.00;101277.44;5029012;28;20088;-48
2022/05/25 06:44:57;;;;;;;18.73;10.67;;;;;;;16.39;100.00;101289.28;5024632;28;19917;-48
2022/05/25 06:47:22;;;;;;;28.57;12.93;;;;;;;16.44;100.00;101289.44;5028667;28;20116;-48
2022/05/25 06:49:52;;;;;;;25.23;11.77;;;;;;;16.82;100.00;101292.13;5028386;28;20029;-48
2022/05/25 06:52:18;;;;;;;21.13;12.03;;;;;;;16.86;100.00;101296.03;5028985;28;20038;-53
2022/05/25 06:54:44;;;;;;;32.22;13.55;;;;;;;16.77;100.00;101292.81;5030506;28;20278;-50
2022/05/25 06:57:09;;;;;;;24.23;12.60;;;;;;;16.77;100.00;101293.63;5025098;28;20031;-54
2022/05/25 06:59:35;;;;;;;20.07;12.77;;;;;;;16.91;100.00;101293.47;5013487;28;20071;-52
2022/05/25 07:02:00;;;;;;;25.77;12.20;;;;;;;17.04;100.00;101303.31;5027864;28;20026;-49
2022/05/25 07:04:26;;;;;;;24.65;11.93;;;;;;;16.90;100.00;101302.63;5028869;28;20283;-52
2022/05/25 07:06:51;;;;;;;25.42;11.95;;;;;;;17.03;100.00;101313.28;5029907;28;20141;-50
2022/05/25 07:09:17;;;;;;;21.05;12.63;;;;;;;17.19;100.00;101303.75;5029796;28;20068;-49
2022/05/25 07:11:43;;;;;;;22.47;11.83;;;;;;;17.60;100.00;101300.47;5026955;28;20063;-50
2022/05/25 07:14:10;;;;;;;22.02;12.43;;;;;;;17.54;100.00;101298.69;5026445;28;20272;-46
2022/05/25 07:16:36;;;;;;;25.17;13.73;;;;;;;17.50;100.00;101303.72;5029752;28;20037;-49
2022/05/25 07:19:02;;;;;;;21.45;11.70;;;;;;;17.82;100.00;101316.16;5026393;28;20271;-51
2022/05/25 07:21:31;;;;;;;30.00;16.27;;;;;;;17.80;100.00;101310.97;5028414;28;20041;-50
2022/05/25 07:23:58;;;;;;;36.80;16.70;;;;;;;17.74;100.00;101322.72;5029414;28;20322;-51
2022/05/25 07:26:25;;;;;;;46.67;18.03;;;;;;;17.63;100.00;101327.88;5031784;28;20275;-50
2022/05/25 07:28:51;;;;;;;32.23;16.37;;;;;;;17.40;100.00;101331.31;5029620;28;20289;-47
2022/05/25 07:31:22;;;;;;;26.17;15.82;;;;;;;17.41;100.00;101335.66;5031502;28;20309;-50
2022/05/25 07:33:54;;;;;;;29.00;17.10;;;;;;;17.67;100.00;101328.25;5026974;28;20041;-52
2022/05/25 07:36:20;;;;;;;28.40;16.97;;;;;;;17.82;100.00;101344.03;5030114;28;20283;-50
2022/05/25 07:38:50;;;;;;;31.67;17.98;;;;;;;17.85;100.00;101324.63;5031092;28;20279;-47
2022/05/25 07:41:17;;;;;;;30.20;18.53;;;;;;;17.98;100.00;101339.00;5030904;28;20034;-48
2022/05/25 07:43:44;;;;;;;29.92;17.33;;;;;;;18.24;100.00;101334.25;5026625;28;20290;-47
2022/05/25 07:46:09;;;;;;;28.23;19.47;;;;;;;18.17;100.00;101327.03;5030118;28;20048;-52
2022/05/25 07:48:36;;;;;;;31.10;19.50;;;;;;;17.92;100.00;101330.75;5015470;28;20271;-49
2022/05/25 07:51:02;;;;;;;;;;;;;;;18.22;100.00;101331.75;5033125;28;20056;-51
2022/05/25 07:56:12;;;;;;;32.77;20.93;;;;;;;18.22;100.00;101339.88;5032481;28;20038;-49
2022/05/25 07:58:37;;;;;;;35.43;21.57;;;;;;;18.17;100.00;101347.88;5031009;28;20307;-50
2022/05/25 08:01:09;;;;;;;34.80;21.03;;;;;;;18.20;100.00;101348.22;5029730;28;20054;-49
2022/05/25 08:06:19;;;;;;;37.53;21.50;;;;;;;18.62;100.00;101343.75;5033072;28;20399;-50
2022/05/25 08:08:45;;;;;;;35.13;21.98;;;;;;;18.73;100.00;101348.34;5024931;28;20284;-52
2022/05/25 08:11:13;;;;;;;;;;;;;;;19.03;100.00;101357.38;5029608;28;20037;-48
2022/05/25 08:13:44;;;;;;;36.77;21.77;;;;;;;19.01;100.00;101362.22;5033661;28;19925;-52
2022/05/25 08:16:10;;;;;;;31.70;20.33;;;;;;;19.44;100.00;101360.09;5027649;28;20751;-54
2022/05/25 08:18:36;;;;;;;37.23;22.87;;;;;;;19.37;100.00;101360.22;5016639;28;20274;-53
2022/05/25 08:21:03;;;;;;;35.92;21.40;;;;;;;19.20;100.00;101358.25;5032953;28;20303;-47
2022/05/25 08:23:30;;;;;;;39.57;22.50;;;;;;;18.85;100.00;101352.91;5032365;28;20046;-49
2022/05/25 08:25:55;;;;;;;37.72;22.00;;;;;;;18.44;100.00;101345.53;5016802;28;20284;-48
2022/05/25 08:28:21;;;;;;;39.50;22.80;;;;;;;18.64;100.00;101349.75;5024420;28;20038;-50
2022/05/25 08:30:46;;;;;;;43.67;24.05;;;;;;;18.50;100.00;101349.19;5014177;28;20110;-52
2022/05/25 08:33:16;;;;;;;39.75;22.42;;;;;;;18.65;100.00;101354.09;5021150;28;20042;-48
2022/05/25 08:35:41;;;;;;;38.37;23.23;;;;;;;19.03;100.00;101354.66;5020998;28;20072;-47
2022/05/25 08:38:07;;;;;;;40.53;24.65;;;;;;;19.07;100.00;101350.44;5024925;28;20272;-53
2022/05/25 08:40:33;;;;;;;41.28;24.63;;;;;;;18.65;100.00;101353.31;5014568;28;20039;-51
2022/05/25 08:43:18;;;;;;;41.70;23.42;;;;;;;19.28;100.00;101356.25;5023812;28;20086;-50
2022/05/25 08:45:48;;;;;;;37.13;22.50;;;;;;;19.34;100.00;101358.81;5023344;28;20123;-50
2022/05/25 08:48:16;;;;;;;34.47;23.63;;;;;;;19.80;100.00;101365.31;5025665;28;20275;-52
2022/05/25 08:50:44;;;;;;;39.03;23.87;;;;;;;20.08;100.00;101367.19;5019601;28;20291;-49
2022/05/25 08:53:13;;;;;;;36.53;22.63;;;;;;;20.17;100.00;101368.41;5025738;28;20299;-54
2022/05/25 08:55:56;;;;;;;42.73;25.00;;;;;;;19.86;100.00;101354.31;5027590;28;20263;-50
2022/05/25 08:58:30;;;;;;;41.23;24.33;;;;;;;20.11;100.00;101352.28;5028055;28;20280;-52
2022/05/25 09:01:01;;;;;;;34.23;23.20;;;;;;;20.55;100.00;101360.56;5019909;28;20061;-49
2022/05/25 09:03:35;;;;;;;37.73;23.97;;;;;;;20.35;100.00;101361.91;5031633;28;20042;-49
2022/05/25 09:06:09;;;;;;;37.80;23.37;;;;;;;20.88;100.00;101367.03;5028537;28;20049;-51
2022/05/25 09:08:45;;;;;;;39.43;23.07;;;;;;;20.88;100.00;101356.16;5020191;28;20038;-50
2022/05/25 09:11:20;;;;;;;37.10;23.25;;;;;;;20.81;100.00;101376.44;5028824;28;20061;-47
2022/05/25 09:14:02;;;;;;;36.67;20.97;;;;;;;19.96;100.00;101378.13;5023278;28;20030;-47
2022/05/25 09:16:32;;;;;;;34.77;22.47;;;;;;;20.22;100.00;101364.13;5013485;28;20059;-49
2022/05/25 09:19:06;;;;;;;37.07;22.30;;;;;;;20.33;100.00;101355.91;5022154;28;20023;-49
2022/05/25 09:21:41;;;;;;;34.20;20.73;;;;;;;20.42;100.00;101386.19;5026249;28;20033;-49
2022/05/25 09:24:12;;;;;;;27.00;19.80;;;;;;;20.59;100.00;101369.84;5015159;28;20038;-49
2022/05/25 09:26:37;;;;;;;27.87;19.37;;;;;;;20.65;100.00;101375.38;5031037;28;20033;-49
2022/05/25 09:29:07;;;;;;;27.65;18.55;;;;;;;20.99;100.00;101372.56;5024922;28;20033;-51
2022/05/25 09:31:40;;;;;;;26.63;19.57;;;;;;;21.63;100.00;101376.56;5017802;28;20122;-51
2022/05/25 09:34:11;;;;;;;26.77;18.60;;;;;;;22.63;100.00;101377.13;5025300;28;20059;-50
2022/05/25 09:36:46;;;;;;;24.23;16.23;;;;;;;21.84;100.00;101382.22;5015475;28;20038;-47
2022/05/25 09:39:23;;;;;;;23.73;16.60;;;;;;;22.13;100.00;101374.56;5021531;28;20049;-49
2022/05/25 09:41:55;;;;;;;23.93;16.37;;;;;;;22.48;100.00;101386.00;5011809;28;20058;-49
2022/05/25 09:44:21;;;;;;;18.97;15.27;;;;;;;22.58;100.00;101390.69;5017117;28;20026;-48
2022/05/25 09:46:52;;;;;;;23.87;14.83;;;;;;;22.12;100.00;101388.44;5025635;28;20045;-49
2022/05/25 09:49:44;;;;;;;23.73;14.87;;;;;;;21.83;100.00;101380.59;5023756;28;20101;-51
2022/05/25 09:52:19;;;;;;;20.90;13.67;;;;;;;21.97;100.00;101378.25;5025301;28;20049;-49
2022/05/25 09:55:09;;;;;;;23.03;13.83;;;;;;;22.39;100.00;101376.66;5019744;28;20054;-51
2022/05/25 09:57:40;;;;;;;17.97;11.20;;;;;;;21.44;100.00;101370.63;5031852;28;20057;-48
2022/05/25 10:00:15;;;;;;;16.00;11.07;;;;;;;21.34;100.00;101374.09;5029878;28;20061;-49
2022/05/25 10:02:47;;;;;;;15.27;11.20;;;;;;;21.37;100.00;101378.19;5019012;28;20042;-47
2022/05/25 10:05:23;;;;;;;15.70;10.70;;;;;;;21.15;100.00;101374.41;5023712;28;20038;-48
2022/05/25 10:07:50;;;;;;;20.53;10.40;;;;;;;21.66;100.00;101380.69;5027314;28;20093;-50
2022/05/25 10:10:24;;;;;;;14.43;9.70;;;;;;;23.14;100.00;101383.88;5021433;28;20097;-51
2022/05/25 10:13:02;;;;;;;12.33;8.07;;;;;;;23.07;100.00;101384.13;5029898;28;20046;-47
2022/05/25 10:15:35;;;;;;;15.50;5.90;;;;;;;23.90;100.00;101376.16;5021746;28;20071;-50
2022/05/25 10:18:01;;;;;;;7.83;3.77;;;;;;;24.04;100.00;101392.84;5023156;28;20034;-48
2022/05/25 10:20:47;;;;;;;10.83;2.83;;;;;;;24.53;100.00;101387.88;5031616;28;20040;-47
2022/05/25 10:23:25;;;;;;;7.63;2.25;;;;;;;24.73;100.00;101404.22;5028104;28;20042;-49
2022/05/25 10:25:54;;;;;;;8.47;3.57;;;;;;;24.07;100.00;101381.38;5024483;28;20064;-51
2022/05/25 10:28:32;;;;;;;6.87;3.33;;;;;;;24.46;100.00;101360.81;5013883;28;20034;-50
2022/05/25 10:37:06;;;;;;;13.00;4.67;;;;;;;24.98;97.44;101369.69;5024885;28;20041;-50
2022/05/25 10:39:40;;;;;;;15.57;5.47;;;;;;;25.76;91.06;101363.78;5025006;28;20081;-51
2022/05/25 10:42:15;;;;;;;8.30;1.67;;;;;;;25.98;82.65;101370.72;5029291;28;20097;-50
2022/05/25 10:44:59;;;;;;;4.67;1.60;;;;;;;25.57;84.62;101378.13;5013550;28;20041;-51
2022/05/25 10:47:54;;;;;;;4.77;1.30;;;;;;;24.67;90.40;101371.69;5029986;28;20052;-49
2022/05/25 10:50:41;;;;;;;2.83;1.33;;;;;;;24.82;90.14;101373.59;5030594;28;20030;-50
2022/05/25 10:53:10;;;;;;;6.63;2.22;;;;;;;25.13;90.47;101370.72;5023644;28;20098;-49
2022/05/25 10:55:59;;;;;;;5.37;1.30;;;;;;;25.37;81.96;101386.44;5023094;28;20042;-50
2022/05/25 10:58:45;;;;;;;2.50;1.13;;;;;;;24.91;81.29;101388.31;5026636;28;20037;-47
2022/05/25 11:01:40;;;;;;;4.47;1.40;;;;;;;26.26;71.96;101382.00;5019773;28;20033;-52
2022/05/25 11:04:21;;;;;;;6.37;1.73;;;;;;;28.23;67.67;101399.44;5024931;28;20065;-52
2022/05/25 11:07:25;;;;;;;3.50;1.70;;;;;;;28.24;64.04;101381.81;5013094;28;20038;-48
2022/05/25 11:10:09;;;;;;;4.78;1.38;;;;;;;29.87;55.03;101388.03;5031268;28;20091;-51
2022/05/25 11:12:54;;;;;;;3.47;1.02;;;;;;;28.83;57.66;101392.28;5016997;28;20034;-50
2022/05/25 11:15:34;;;;;;;2.83;1.20;;;;;;;27.11;65.02;101384.38;5022298;28;20030;-49
2022/05/25 11:18:13;;;;;;;4.50;1.25;;;;;;;26.75;69.57;101385.59;5023227;28;20046;-49
2022/05/25 11:21:00;;;;;;;6.40;1.00;;;;;;;25.84;77.09;101371.41;5030764;28;20034;-51
2022/05/25 11:23:43;;;;;;;4.40;1.33;;;;;;;26.73;72.88;101368.63;5020335;28;20054;-49
2022/05/25 11:26:41;;;;;;;4.47;1.63;;;;;;;26.30;75.55;101375.66;5013315;28;20041;-51
2022/05/25 11:29:18;;;;;;;5.53;1.30;;;;;;;27.60;67.73;101374.09;5017391;28;20063;-48
2022/05/25 11:32:04;;;;;;;2.33;1.25;;;;;;;28.86;59.71;101366.09;5023289;28;20062;-47
2022/05/25 11:34:40;;;;;;;3.03;0.90;;;;;;;27.62;56.51;101371.88;5011512;28;20065;-49
2022/05/25 11:37:20;;;;;;;2.55;0.70;;;;;;;27.80;54.69;101372.94;5015586;28;20058;-51
2022/05/25 11:40:07;;;;;;;4.30;0.82;;;;;;;27.89;54.15;101371.13;5019772;28;20037;-50
2022/05/25 11:42:51;;;;;;;4.93;0.95;;;;;;;27.32;57.34;101371.16;5029998;28;20033;-52
2022/05/25 11:45:29;;;;;;;5.18;1.23;;;;;;;28.02;51.63;101363.25;5030303;28;20038;-51
2022/05/25 11:48:01;;;;;;;5.22;1.20;;;;;;;29.77;44.95;101355.25;5023781;28;20034;-51